sensor_id;sensor_type;location;lat;lon;timestamp;P1;durP1;ratioP1;P2;durP2;ratioP2
7169;SDS011;3626;42.656;23.312;2023-02-15T00:00:06;50.28;;;25.18;;
7169;SDS011;3626;42.656;23.312;2023-02-15T00:00:15;50.00;;;24.93;;
7169;SDS011;3626;42.656;23.312;2023-02-15T00:00:22;50.00;;;24.88;;
7169;SDS011;3626;42.656;23.312;2023-02-15T00:00:31;50.88;;;25.08;;
7169;SDS011;3626;42.656;23.312;2023-02-15T00:00:37;52.17;;;25.23;;
7169;SDS011;3626;42.656;23.312;2023-02-15T00:00:43;53.03;;;25.58;;
7169;SDS011;3626;42.656;23.312;2023-02-15T00:00:49;52.63;;;25.05;;
7169;SDS011;3626;42.656;23.312;2023-02-15T00:01:04;52.72;;;24.85;;
7169;SDS011;3626;42.656;23.312;2023-02-15T00:01:11;53.67;;;24.92;;
7169;SDS011;3626;42.656;23.312;2023-02-15T00:01:18;54.50;;;25.23;;
7169;SDS011;3626;42.656;23.312;2023-02-15T00:01:24;53.40;;;24.85;;
7169;SDS011;3626;42.656;23.312;2023-02-15T00:01:30;53.08;;;24.80;;
7169;SDS011;3626;42.656;23.312;2023-02-15T00:01:37;52.70;;;24.73;;
7169;SDS011;3626;42.656;23.312;2023-02-15T00:01:43;52.80;;;24.83;;
7169;SDS011;3626;42.656;23.312;2023-02-15T00:01:50;53.30;;;25.10;;
7169;SDS011;3626;42.656;23.312;2023-02-15T00:01:57;53.18;;;25.30;;
7169;SDS011;3626;42.656;23.312;2023-02-15T00:02:03;52.28;;;25.20;;
7169;SDS011;3626;42.656;23.312;2023-02-15T00:02:09;51.28;;;25.08;;
7169;SDS011;3626;42.656;23.312;2023-02-15T00:02:16;49.97;;;24.60;;
7169;SDS011;3626;42.656;23.312;2023-02-15T00:02:24;49.50;;;24.50;;
7169;SDS011;3626;42.656;23.312;2023-02-15T00:02:30;49.60;;;24.70;;
7169;SDS011;3626;42.656;23.312;2023-02-15T00:02:36;49.35;;;24.83;;
7169;SDS011;3626;42.656;23.312;2023-02-15T00:02:42;48.85;;;24.50;;
7169;SDS011;3626;42.656;23.312;2023-02-15T00:02:48;49.78;;;24.70;;
7169;SDS011;3626;42.656;23.312;2023-02-15T00:02:54;49.80;;;24.55;;
7169;SDS011;3626;42.656;23.312;2023-02-15T00:03:00;49.40;;;24.38;;
7169;SDS011;3626;42.656;23.312;2023-02-15T00:03:06;51.03;;;24.50;;
7169;SDS011;3626;42.656;23.312;2023-02-15T00:03:12;52.30;;;24.70;;
7169;SDS011;3626;42.656;23.312;2023-02-15T00:03:20;53.67;;;24.96;;
7169;SDS011;3626;42.656;23.312;2023-02-15T00:03:27;54.43;;;25.20;;
7169;SDS011;3626;42.656;23.312;2023-02-15T00:03:33;53.90;;;24.75;;
7169;SDS011;3626;42.656;23.312;2023-02-15T00:03:39;54.50;;;24.77;;
7169;SDS011;3626;42.656;23.312;2023-02-15T00:03:47;54.23;;;24.53;;
7169;SDS011;3626;42.656;23.312;2023-02-15T00:03:53;53.87;;;24.73;;
7169;SDS011;3626;42.656;23.312;2023-02-15T00:04:01;53.06;;;24.58;;
7169;SDS011;3626;42.656;23.312;2023-02-15T00:04:08;51.07;;;24.40;;
7169;SDS011;3626;42.656;23.312;2023-02-15T00:04:16;51.15;;;24.50;;
7169;SDS011;3626;42.656;23.312;2023-02-15T00:04:23;51.60;;;24.56;;
7169;SDS011;3626;42.656;23.312;2023-02-15T00:04:51;50.54;;;24.59;;
7169;SDS011;3626;42.656;23.312;2023-02-15T00:04:56;49.50;;;24.17;;
7169;SDS011;3626;42.656;23.312;2023-02-15T00:05:02;49.28;;;23.92;;
7169;SDS011;3626;42.656;23.312;2023-02-15T00:05:09;50.62;;;24.22;;
7169;SDS011;3626;42.656;23.312;2023-02-15T00:05:15;51.92;;;24.48;;
7169;SDS011;3626;42.656;23.312;2023-02-15T00:05:21;51.70;;;24.33;;
7169;SDS011;3626;42.656;23.312;2023-02-15T00:05:26;51.42;;;24.10;;
7169;SDS011;3626;42.656;23.312;2023-02-15T00:05:34;52.70;;;24.27;;
7169;SDS011;3626;42.656;23.312;2023-02-15T00:05:40;54.80;;;24.73;;
7169;SDS011;3626;42.656;23.312;2023-02-15T00:05:45;55.05;;;24.95;;
7169;SDS011;3626;42.656;23.312;2023-02-15T00:05:51;55.58;;;25.10;;
7169;SDS011;3626;42.656;23.312;2023-02-15T00:05:57;55.63;;;25.00;;
7169;SDS011;3626;42.656;23.312;2023-02-15T00:06:03;55.20;;;24.90;;
7169;SDS011;3626;42.656;23.312;2023-02-15T00:06:09;54.13;;;24.80;;
7169;SDS011;3626;42.656;23.312;2023-02-15T00:06:15;53.15;;;24.60;;
7169;SDS011;3626;42.656;23.312;2023-02-15T00:06:22;52.72;;;24.65;;
7169;SDS011;3626;42.656;23.312;2023-02-15T00:06:28;52.65;;;24.80;;
7169;SDS011;3626;42.656;23.312;2023-02-15T00:06:34;52.06;;;24.68;;
7169;SDS011;3626;42.656;23.312;2023-02-15T00:06:41;51.24;;;24.50;;
7169;SDS011;3626;42.656;23.312;2023-02-15T00:06:46;51.33;;;24.23;;
7169;SDS011;3626;42.656;23.312;2023-02-15T00:06:52;50.72;;;23.80;;
7169;SDS011;3626;42.656;23.312;2023-02-15T00:06:58;51.20;;;24.00;;
7169;SDS011;3626;42.656;23.312;2023-02-15T00:07:04;51.60;;;23.83;;
7169;SDS011;3626;42.656;23.312;2023-02-15T00:07:09;51.90;;;23.73;;
7169;SDS011;3626;42.656;23.312;2023-02-15T00:07:16;51.50;;;23.50;;
7169;SDS011;3626;42.656;23.312;2023-02-15T00:07:23;51.10;;;23.27;;
7169;SDS011;3626;42.656;23.312;2023-02-15T00:07:28;51.30;;;23.25;;
7169;SDS011;3626;42.656;23.312;2023-02-15T00:07:34;50.70;;;23.10;;
7169;SDS011;3626;42.656;23.312;2023-02-15T00:07:40;52.47;;;23.40;;
7169;SDS011;3626;42.656;23.312;2023-02-15T00:07:46;52.63;;;23.77;;
7169;SDS011;3626;42.656;23.312;2023-02-15T00:07:51;52.67;;;24.25;;
7169;SDS011;3626;42.656;23.312;2023-02-15T00:07:58;52.17;;;24.40;;
7169;SDS011;3626;42.656;23.312;2023-02-15T00:08:04;51.85;;;24.48;;
7169;SDS011;3626;42.656;23.312;2023-02-15T00:08:10;51.90;;;24.60;;
7169;SDS011;3626;42.656;23.312;2023-02-15T00:08:15;51.60;;;24.73;;
7169;SDS011;3626;42.656;23.312;2023-02-15T00:08:21;52.67;;;25.33;;
7169;SDS011;3626;42.656;23.312;2023-02-15T00:08:27;52.37;;;25.37;;
7169;SDS011;3626;42.656;23.312;2023-02-15T00:08:33;53.33;;;25.77;;
7169;SDS011;3626;42.656;23.312;2023-02-15T00:08:39;52.05;;;25.65;;
7169;SDS011;3626;42.656;23.312;2023-02-15T00:08:45;51.22;;;25.42;;
7169;SDS011;3626;42.656;23.312;2023-02-15T00:08:51;51.50;;;25.23;;
7169;SDS011;3626;42.656;23.312;2023-02-15T00:08:57;51.72;;;25.23;;
7169;SDS011;3626;42.656;23.312;2023-02-15T00:09:02;52.42;;;25.60;;
7169;SDS011;3626;42.656;23.312;2023-02-15T00:09:09;52.90;;;25.67;;
7169;SDS011;3626;42.656;23.312;2023-02-15T00:09:17;52.45;;;25.55;;
7169;SDS011;3626;42.656;23.312;2023-02-15T00:09:22;51.08;;;24.70;;
7169;SDS011;3626;42.656;23.312;2023-02-15T00:09:28;50.67;;;24.77;;
7169;SDS011;3626;42.656;23.312;2023-02-15T00:09:34;50.50;;;24.75;;
7169;SDS011;3626;42.656;23.312;2023-02-15T00:09:40;50.88;;;25.02;;
7169;SDS011;3626;42.656;23.312;2023-02-15T00:09:45;50.50;;;24.83;;
7169;SDS011;3626;42.656;23.312;2023-02-15T00:09:52;52.60;;;25.23;;
7169;SDS011;3626;42.656;23.312;2023-02-15T00:09:57;52.22;;;24.92;;
7169;SDS011;3626;42.656;23.312;2023-02-15T00:10:04;52.67;;;24.83;;
7169;SDS011;3626;42.656;23.312;2023-02-15T00:10:10;51.77;;;24.83;;
7169;SDS011;3626;42.656;23.312;2023-02-15T00:10:17;51.78;;;24.70;;
7169;SDS011;3626;42.656;23.312;2023-02-15T00:10:22;52.38;;;25.17;;
7169;SDS011;3626;42.656;23.312;2023-02-15T00:10:28;52.65;;;25.10;;
7169;SDS011;3626;42.656;23.312;2023-02-15T00:10:34;52.38;;;24.70;;
7169;SDS011;3626;42.656;23.312;2023-02-15T00:10:41;53.20;;;24.73;;
7169;SDS011;3626;42.656;23.312;2023-02-15T00:10:46;53.58;;;25.08;;
7169;SDS011;3626;42.656;23.312;2023-02-15T00:10:52;52.15;;;24.92;;
7169;SDS011;3626;42.656;23.312;2023-02-15T00:11:05;52.70;;;25.33;;
7169;SDS011;3626;42.656;23.312;2023-02-15T00:11:12;53.69;;;25.29;;
7169;SDS011;3626;42.656;23.312;2023-02-15T00:11:19;54.55;;;25.32;;
7169;SDS011;3626;42.656;23.312;2023-02-15T00:11:44;54.90;;;25.15;;
7169;SDS011;3626;42.656;23.312;2023-02-15T00:11:55;54.40;;;24.80;;
7169;SDS011;3626;42.656;23.312;2023-02-15T00:12:00;53.70;;;24.67;;
7169;SDS011;3626;42.656;23.312;2023-02-15T00:12:06;54.40;;;24.80;;
7169;SDS011;3626;42.656;23.312;2023-02-15T00:12:12;54.33;;;25.00;;
7169;SDS011;3626;42.656;23.312;2023-02-15T00:12:18;54.00;;;25.20;;
7169;SDS011;3626;42.656;23.312;2023-02-15T00:12:24;53.70;;;25.30;;
7169;SDS011;3626;42.656;23.312;2023-02-15T00:12:30;54.55;;;25.55;;
7169;SDS011;3626;42.656;23.312;2023-02-15T00:12:36;54.05;;;25.55;;
7169;SDS011;3626;42.656;23.312;2023-02-15T00:12:42;53.30;;;25.60;;
7169;SDS011;3626;42.656;23.312;2023-02-15T00:12:47;53.72;;;25.58;;
7169;SDS011;3626;42.656;23.312;2023-02-15T00:12:53;53.47;;;25.67;;
7169;SDS011;3626;42.656;23.312;2023-02-15T00:12:59;53.80;;;25.63;;
7169;SDS011;3626;42.656;23.312;2023-02-15T00:13:05;51.73;;;25.23;;
7169;SDS011;3626;42.656;23.312;2023-02-15T00:13:11;51.20;;;24.75;;
7169;SDS011;3626;42.656;23.312;2023-02-15T00:13:16;51.53;;;24.52;;
7169;SDS011;3626;42.656;23.312;2023-02-15T00:13:22;51.90;;;24.70;;
7169;SDS011;3626;42.656;23.312;2023-02-15T00:13:28;51.83;;;24.58;;
7169;SDS011;3626;42.656;23.312;2023-02-15T00:13:34;51.92;;;24.83;;
7169;SDS011;3626;42.656;23.312;2023-02-15T00:13:43;51.93;;;24.31;;
7169;SDS011;3626;42.656;23.312;2023-02-15T00:13:49;52.95;;;24.60;;
7169;SDS011;3626;42.656;23.312;2023-02-15T00:13:55;52.67;;;24.42;;
7169;SDS011;3626;42.656;23.312;2023-02-15T00:14:01;51.50;;;24.15;;
7169;SDS011;3626;42.656;23.312;2023-02-15T00:14:07;51.67;;;24.10;;
7169;SDS011;3626;42.656;23.312;2023-02-15T00:14:15;50.90;;;24.47;;
7169;SDS011;3626;42.656;23.312;2023-02-15T00:14:23;50.63;;;24.09;;
7169;SDS011;3626;42.656;23.312;2023-02-15T00:14:29;50.05;;;24.08;;
7169;SDS011;3626;42.656;23.312;2023-02-15T00:14:35;50.33;;;24.47;;
7169;SDS011;3626;42.656;23.312;2023-02-15T00:14:41;49.78;;;24.50;;
7169;SDS011;3626;42.656;23.312;2023-02-15T00:14:47;48.23;;;24.13;;
7169;SDS011;3626;42.656;23.312;2023-02-15T00:14:53;49.50;;;24.45;;
7169;SDS011;3626;42.656;23.312;2023-02-15T00:14:59;51.30;;;24.70;;
7169;SDS011;3626;42.656;23.312;2023-02-15T00:15:05;52.30;;;25.23;;
7169;SDS011;3626;42.656;23.312;2023-02-15T00:15:12;51.90;;;25.03;;
7169;SDS011;3626;42.656;23.312;2023-02-15T00:15:18;52.03;;;25.00;;
7169;SDS011;3626;42.656;23.312;2023-02-15T00:15:23;52.97;;;25.35;;
7169;SDS011;3626;42.656;23.312;2023-02-15T00:15:32;54.33;;;25.70;;
7169;SDS011;3626;42.656;23.312;2023-02-15T00:15:38;56.36;;;26.08;;
7169;SDS011;3626;42.656;23.312;2023-02-15T00:15:43;58.22;;;26.38;;
7169;SDS011;3626;42.656;23.312;2023-02-15T00:15:49;57.80;;;26.27;;
7169;SDS011;3626;42.656;23.312;2023-02-15T00:15:59;56.40;;;26.20;;
7169;SDS011;3626;42.656;23.312;2023-02-15T00:16:06;54.83;;;26.01;;
7169;SDS011;3626;42.656;23.312;2023-02-15T00:16:13;53.67;;;25.63;;
7169;SDS011;3626;42.656;23.312;2023-02-15T00:16:19;53.90;;;25.80;;
7169;SDS011;3626;42.656;23.312;2023-02-15T00:16:24;52.15;;;25.35;;
7169;SDS011;3626;42.656;23.312;2023-02-15T00:16:30;49.95;;;24.50;;
7169;SDS011;3626;42.656;23.312;2023-02-15T00:16:37;46.80;;;23.93;;
7169;SDS011;3626;42.656;23.312;2023-02-15T00:16:44;46.43;;;24.10;;
7169;SDS011;3626;42.656;23.312;2023-02-15T00:16:51;47.20;;;24.30;;
7169;SDS011;3626;42.656;23.312;2023-02-15T00:16:58;47.47;;;24.28;;
7169;SDS011;3626;42.656;23.312;2023-02-15T00:17:05;47.73;;;24.57;;
7169;SDS011;3626;42.656;23.312;2023-02-15T00:17:11;49.38;;;24.84;;
7169;SDS011;3626;42.656;23.312;2023-02-15T00:17:17;49.77;;;24.80;;
7169;SDS011;3626;42.656;23.312;2023-02-15T00:17:23;51.88;;;25.35;;
7169;SDS011;3626;42.656;23.312;2023-02-15T00:17:29;53.42;;;25.90;;
7169;SDS011;3626;42.656;23.312;2023-02-15T00:17:38;55.17;;;26.38;;
7169;SDS011;3626;42.656;23.312;2023-02-15T00:17:44;54.70;;;26.03;;
7169;SDS011;3626;42.656;23.312;2023-02-15T00:17:50;53.17;;;25.35;;
7169;SDS011;3626;42.656;23.312;2023-02-15T00:17:56;52.45;;;25.00;;
7169;SDS011;3626;42.656;23.312;2023-02-15T00:18:02;52.58;;;24.73;;
7169;SDS011;3626;42.656;23.312;2023-02-15T00:18:09;51.50;;;24.48;;
7169;SDS011;3626;42.656;23.312;2023-02-15T00:18:14;52.20;;;24.60;;
7169;SDS011;3626;42.656;23.312;2023-02-15T00:18:20;50.83;;;24.05;;
7169;SDS011;3626;42.656;23.312;2023-02-15T00:18:26;50.58;;;23.88;;
7169;SDS011;3626;42.656;23.312;2023-02-15T00:18:32;49.88;;;23.42;;
7169;SDS011;3626;42.656;23.312;2023-02-15T00:18:39;50.17;;;23.47;;
7169;SDS011;3626;42.656;23.312;2023-02-15T00:18:45;50.88;;;23.62;;
7169;SDS011;3626;42.656;23.312;2023-02-15T00:18:51;51.63;;;23.85;;
7169;SDS011;3626;42.656;23.312;2023-02-15T00:18:57;52.37;;;24.10;;
7169;SDS011;3626;42.656;23.312;2023-02-15T00:19:06;53.57;;;24.30;;
7169;SDS011;3626;42.656;23.312;2023-02-15T00:19:14;53.20;;;24.00;;
7169;SDS011;3626;42.656;23.312;2023-02-15T00:19:24;52.18;;;23.74;;
7169;SDS011;3626;42.656;23.312;2023-02-15T00:19:30;51.47;;;23.40;;
7169;SDS011;3626;42.656;23.312;2023-02-15T00:19:35;50.97;;;23.30;;
7169;SDS011;3626;42.656;23.312;2023-02-15T00:19:41;50.63;;;22.95;;
7169;SDS011;3626;42.656;23.312;2023-02-15T00:19:48;50.88;;;23.27;;
7169;SDS011;3626;42.656;23.312;2023-02-15T00:19:54;51.13;;;23.20;;
7169;SDS011;3626;42.656;23.312;2023-02-15T00:20:00;51.92;;;23.10;;
7169;SDS011;3626;42.656;23.312;2023-02-15T00:20:06;51.85;;;23.25;;
7169;SDS011;3626;42.656;23.312;2023-02-15T00:20:13;52.16;;;23.76;;
7169;SDS011;3626;42.656;23.312;2023-02-15T00:20:19;53.05;;;24.35;;
7169;SDS011;3626;42.656;23.312;2023-02-15T00:20:25;52.72;;;24.42;;
7169;SDS011;3626;42.656;23.312;2023-02-15T00:20:31;53.15;;;24.77;;
7169;SDS011;3626;42.656;23.312;2023-02-15T00:20:37;52.78;;;24.40;;
7169;SDS011;3626;42.656;23.312;2023-02-15T00:20:44;52.93;;;24.60;;
7169;SDS011;3626;42.656;23.312;2023-02-15T00:20:50;52.30;;;24.40;;
7169;SDS011;3626;42.656;23.312;2023-02-15T00:20:56;51.93;;;24.33;;
7169;SDS011;3626;42.656;23.312;2023-02-15T00:21:03;51.30;;;24.80;;
7169;SDS011;3626;42.656;23.312;2023-02-15T00:21:09;51.90;;;24.77;;
7169;SDS011;3626;42.656;23.312;2023-02-15T00:21:15;51.95;;;24.70;;
7169;SDS011;3626;42.656;23.312;2023-02-15T00:21:21;52.65;;;24.63;;
7169;SDS011;3626;42.656;23.312;2023-02-15T00:21:28;53.17;;;24.73;;
7169;SDS011;3626;42.656;23.312;2023-02-15T00:21:34;52.76;;;24.74;;
7169;SDS011;3626;42.656;23.312;2023-02-15T00:21:41;52.96;;;24.68;;
7169;SDS011;3626;42.656;23.312;2023-02-15T00:21:48;52.55;;;24.70;;
7169;SDS011;3626;42.656;23.312;2023-02-15T00:21:54;52.63;;;24.77;;
7169;SDS011;3626;42.656;23.312;2023-02-15T00:22:00;53.00;;;24.47;;
7169;SDS011;3626;42.656;23.312;2023-02-15T00:22:09;52.50;;;24.33;;
7169;SDS011;3626;42.656;23.312;2023-02-15T00:22:15;51.72;;;24.15;;
7169;SDS011;3626;42.656;23.312;2023-02-15T00:22:21;51.47;;;24.13;;
7169;SDS011;3626;42.656;23.312;2023-02-15T00:22:27;51.43;;;24.17;;
7169;SDS011;3626;42.656;23.312;2023-02-15T00:22:33;52.33;;;24.53;;
7169;SDS011;3626;42.656;23.312;2023-02-15T00:22:39;52.30;;;24.77;;
7169;SDS011;3626;42.656;23.312;2023-02-15T00:22:45;52.88;;;24.83;;
7169;SDS011;3626;42.656;23.312;2023-02-15T00:22:51;53.70;;;25.17;;
7169;SDS011;3626;42.656;23.312;2023-02-15T00:22:58;53.80;;;25.10;;
7169;SDS011;3626;42.656;23.312;2023-02-15T00:23:04;53.53;;;25.07;;
7169;SDS011;3626;42.656;23.312;2023-02-15T00:23:10;53.95;;;25.13;;
7169;SDS011;3626;42.656;23.312;2023-02-15T00:23:16;54.90;;;25.17;;
7169;SDS011;3626;42.656;23.312;2023-02-15T00:23:22;55.25;;;25.30;;
7169;SDS011;3626;42.656;23.312;2023-02-15T00:23:28;55.65;;;25.48;;
7169;SDS011;3626;42.656;23.312;2023-02-15T00:23:34;55.55;;;25.48;;
7169;SDS011;3626;42.656;23.312;2023-02-15T00:23:40;54.70;;;25.40;;
7169;SDS011;3626;42.656;23.312;2023-02-15T00:23:49;53.54;;;24.84;;
7169;SDS011;3626;42.656;23.312;2023-02-15T00:23:55;52.15;;;24.48;;
7169;SDS011;3626;42.656;23.312;2023-02-15T00:24:02;53.12;;;24.80;;
7169;SDS011;3626;42.656;23.312;2023-02-15T00:24:10;53.50;;;24.63;;
7169;SDS011;3626;42.656;23.312;2023-02-15T00:24:18;53.57;;;24.93;;
7169;SDS011;3626;42.656;23.312;2023-02-15T00:24:25;53.27;;;24.80;;
7169;SDS011;3626;42.656;23.312;2023-02-15T00:24:31;54.10;;;24.83;;
7169;SDS011;3626;42.656;23.312;2023-02-15T00:24:37;55.30;;;25.13;;
7169;SDS011;3626;42.656;23.312;2023-02-15T00:24:43;55.65;;;25.27;;
7169;SDS011;3626;42.656;23.312;2023-02-15T00:24:49;57.08;;;25.65;;
7169;SDS011;3626;42.656;23.312;2023-02-15T00:24:55;59.25;;;25.90;;
7169;SDS011;3626;42.656;23.312;2023-02-15T00:25:02;57.92;;;25.44;;
7169;SDS011;3626;42.656;23.312;2023-02-15T00:25:09;57.07;;;25.40;;
7169;SDS011;3626;42.656;23.312;2023-02-15T00:25:15;57.13;;;25.30;;
7169;SDS011;3626;42.656;23.312;2023-02-15T00:25:21;56.53;;;25.05;;
7169;SDS011;3626;42.656;23.312;2023-02-15T00:25:27;55.65;;;24.92;;
7169;SDS011;3626;42.656;23.312;2023-02-15T00:25:33;54.60;;;24.58;;
7169;SDS011;3626;42.656;23.312;2023-02-15T00:25:39;54.70;;;24.45;;
7169;SDS011;3626;42.656;23.312;2023-02-15T00:25:45;53.95;;;23.98;;
7169;SDS011;3626;42.656;23.312;2023-02-15T00:25:51;52.78;;;23.55;;
7169;SDS011;3626;42.656;23.312;2023-02-15T00:26:03;51.80;;;23.50;;
7169;SDS011;3626;42.656;23.312;2023-02-15T00:26:10;50.80;;;23.42;;
7169;SDS011;3626;42.656;23.312;2023-02-15T00:26:17;50.46;;;23.08;;
7169;SDS011;3626;42.656;23.312;2023-02-15T00:26:23;51.22;;;23.25;;
7169;SDS011;3626;42.656;23.312;2023-02-15T00:26:29;52.00;;;23.50;;
7169;SDS011;3626;42.656;23.312;2023-02-15T00:26:35;51.20;;;23.50;;
7169;SDS011;3626;42.656;23.312;2023-02-15T00:26:45;54.87;;;23.80;;
7169;SDS011;3626;42.656;23.312;2023-02-15T00:26:52;54.62;;;23.82;;
7169;SDS011;3626;42.656;23.312;2023-02-15T00:26:58;55.28;;;24.05;;
7169;SDS011;3626;42.656;23.312;2023-02-15T00:27:04;55.70;;;24.33;;
7169;SDS011;3626;42.656;23.312;2023-02-15T00:27:10;56.42;;;24.77;;
7169;SDS011;3626;42.656;23.312;2023-02-15T00:27:16;55.63;;;24.75;;
7169;SDS011;3626;42.656;23.312;2023-02-15T00:27:22;54.47;;;24.60;;
7169;SDS011;3626;42.656;23.312;2023-02-15T00:27:28;54.00;;;24.50;;
7169;SDS011;3626;42.656;23.312;2023-02-15T00:27:34;53.42;;;24.05;;
7169;SDS011;3626;42.656;23.312;2023-02-15T00:27:40;50.58;;;24.00;;
7169;SDS011;3626;42.656;23.312;2023-02-15T00:27:46;50.05;;;24.20;;
7169;SDS011;3626;42.656;23.312;2023-02-15T00:27:52;50.00;;;24.47;;
7169;SDS011;3626;42.656;23.312;2023-02-15T00:27:59;49.60;;;24.27;;
7169;SDS011;3626;42.656;23.312;2023-02-15T00:28:08;48.07;;;23.77;;
7169;SDS011;3626;42.656;23.312;2023-02-15T00:28:14;47.13;;;23.70;;
7169;SDS011;3626;42.656;23.312;2023-02-15T00:28:20;47.63;;;23.60;;
7169;SDS011;3626;42.656;23.312;2023-02-15T00:28:27;49.10;;;23.60;;
7169;SDS011;3626;42.656;23.312;2023-02-15T00:28:33;50.93;;;23.87;;
7169;SDS011;3626;42.656;23.312;2023-02-15T00:28:39;51.05;;;23.88;;
7169;SDS011;3626;42.656;23.312;2023-02-15T00:28:45;50.03;;;23.42;;
7169;SDS011;3626;42.656;23.312;2023-02-15T00:28:51;50.37;;;23.37;;
7169;SDS011;3626;42.656;23.312;2023-02-15T00:28:57;49.22;;;22.94;;
7169;SDS011;3626;42.656;23.312;2023-02-15T00:29:04;51.33;;;23.30;;
7169;SDS011;3626;42.656;23.312;2023-02-15T00:29:10;52.97;;;23.87;;
7169;SDS011;3626;42.656;23.312;2023-02-15T00:29:18;54.15;;;24.02;;
7169;SDS011;3626;42.656;23.312;2023-02-15T00:29:26;52.40;;;23.92;;
7169;SDS011;3626;42.656;23.312;2023-02-15T00:29:33;50.70;;;24.02;;
7169;SDS011;3626;42.656;23.312;2023-02-15T00:29:39;50.07;;;24.03;;
7169;SDS011;3626;42.656;23.312;2023-02-15T00:29:46;50.77;;;24.60;;
7169;SDS011;3626;42.656;23.312;2023-02-15T00:29:52;51.57;;;24.60;;
7169;SDS011;3626;42.656;23.312;2023-02-15T00:29:58;52.05;;;24.70;;
7169;SDS011;3626;42.656;23.312;2023-02-15T00:30:05;50.10;;;24.15;;
7169;SDS011;3626;42.656;23.312;2023-02-15T00:30:18;47.30;;;23.28;;
7169;SDS011;3626;42.656;23.312;2023-02-15T00:30:24;47.35;;;23.30;;
7169;SDS011;3626;42.656;23.312;2023-02-15T00:30:32;47.28;;;23.33;;
7169;SDS011;3626;42.656;23.312;2023-02-15T00:30:38;48.00;;;23.15;;
7169;SDS011;3626;42.656;23.312;2023-02-15T00:30:44;47.63;;;22.93;;
7169;SDS011;3626;42.656;23.312;2023-02-15T00:30:51;47.70;;;22.77;;
7169;SDS011;3626;42.656;23.312;2023-02-15T00:31:01;47.03;;;22.77;;
7169;SDS011;3626;42.656;23.312;2023-02-15T00:31:09;47.95;;;23.00;;
7169;SDS011;3626;42.656;23.312;2023-02-15T00:31:17;50.50;;;23.60;;
7169;SDS011;3626;42.656;23.312;2023-02-15T00:31:25;50.17;;;23.43;;
7169;SDS011;3626;42.656;23.312;2023-02-15T00:31:32;50.22;;;23.40;;
7169;SDS011;3626;42.656;23.312;2023-02-15T00:31:39;51.47;;;24.27;;
7169;SDS011;3626;42.656;23.312;2023-02-15T00:31:45;51.08;;;24.25;;
7169;SDS011;3626;42.656;23.312;2023-02-15T00:31:51;50.57;;;24.50;;
7169;SDS011;3626;42.656;23.312;2023-02-15T00:31:57;49.92;;;24.40;;
7169;SDS011;3626;42.656;23.312;2023-02-15T00:32:03;49.65;;;24.40;;
7169;SDS011;3626;42.656;23.312;2023-02-15T00:32:11;49.50;;;24.30;;
7169;SDS011;3626;42.656;23.312;2023-02-15T00:32:17;49.80;;;24.55;;
7169;SDS011;3626;42.656;23.312;2023-02-15T00:32:23;50.15;;;24.67;;
7169;SDS011;3626;42.656;23.312;2023-02-15T00:32:29;50.00;;;24.60;;
7169;SDS011;3626;42.656;23.312;2023-02-15T00:32:35;49.42;;;24.42;;
7169;SDS011;3626;42.656;23.312;2023-02-15T00:32:41;49.17;;;23.92;;
7169;SDS011;3626;42.656;23.312;2023-02-15T00:32:47;49.05;;;23.77;;
7169;SDS011;3626;42.656;23.312;2023-02-15T00:32:53;48.93;;;23.67;;
7169;SDS011;3626;42.656;23.312;2023-02-15T00:32:59;49.38;;;23.65;;
7169;SDS011;3626;42.656;23.312;2023-02-15T00:33:05;50.40;;;23.83;;
7169;SDS011;3626;42.656;23.312;2023-02-15T00:33:11;48.75;;;23.52;;
7169;SDS011;3626;42.656;23.312;2023-02-15T00:33:17;46.55;;;22.90;;
7169;SDS011;3626;42.656;23.312;2023-02-15T00:33:25;47.80;;;23.03;;
7169;SDS011;3626;42.656;23.312;2023-02-15T00:33:31;48.30;;;22.90;;
7169;SDS011;3626;42.656;23.312;2023-02-15T00:33:38;49.10;;;23.17;;
7169;SDS011;3626;42.656;23.312;2023-02-15T00:33:44;50.08;;;23.46;;
7169;SDS011;3626;42.656;23.312;2023-02-15T00:33:50;50.40;;;23.37;;
7169;SDS011;3626;42.656;23.312;2023-02-15T00:34:00;49.83;;;23.35;;
7169;SDS011;3626;42.656;23.312;2023-02-15T00:34:07;48.97;;;23.21;;
7169;SDS011;3626;42.656;23.312;2023-02-15T00:34:17;50.28;;;23.75;;
7169;SDS011;3626;42.656;23.312;2023-02-15T00:34:25;48.23;;;23.37;;
7169;SDS011;3626;42.656;23.312;2023-02-15T00:34:32;49.12;;;23.68;;
7169;SDS011;3626;42.656;23.312;2023-02-15T00:34:38;48.45;;;23.13;;
7169;SDS011;3626;42.656;23.312;2023-02-15T00:34:48;48.20;;;23.08;;
7169;SDS011;3626;42.656;23.312;2023-02-15T00:34:54;51.55;;;23.40;;
7169;SDS011;3626;42.656;23.312;2023-02-15T00:35:00;52.15;;;23.38;;
7169;SDS011;3626;42.656;23.312;2023-02-15T00:35:06;51.78;;;23.27;;
7169;SDS011;3626;42.656;23.312;2023-02-15T00:35:12;52.35;;;23.65;;
7169;SDS011;3626;42.656;23.312;2023-02-15T00:35:18;52.03;;;23.73;;
7169;SDS011;3626;42.656;23.312;2023-02-15T00:35:24;52.08;;;23.77;;
7169;SDS011;3626;42.656;23.312;2023-02-15T00:35:30;51.53;;;23.70;;
7169;SDS011;3626;42.656;23.312;2023-02-15T00:35:36;50.45;;;23.50;;
7169;SDS011;3626;42.656;23.312;2023-02-15T00:35:42;50.20;;;23.33;;
7169;SDS011;3626;42.656;23.312;2023-02-15T00:35:48;48.95;;;23.33;;
7169;SDS011;3626;42.656;23.312;2023-02-15T00:36:02;46.51;;;22.94;;
7169;SDS011;3626;42.656;23.312;2023-02-15T00:36:10;46.50;;;22.69;;
7169;SDS011;3626;42.656;23.312;2023-02-15T00:36:16;45.55;;;22.10;;
7169;SDS011;3626;42.656;23.312;2023-02-15T00:36:22;45.50;;;22.08;;
7169;SDS011;3626;42.656;23.312;2023-02-15T00:36:28;45.15;;;21.85;;
7169;SDS011;3626;42.656;23.312;2023-02-15T00:36:34;44.93;;;22.07;;
7169;SDS011;3626;42.656;23.312;2023-02-15T00:36:40;44.03;;;22.35;;
7169;SDS011;3626;42.656;23.312;2023-02-15T00:36:47;43.93;;;22.40;;
7169;SDS011;3626;42.656;23.312;2023-02-15T00:36:53;44.08;;;22.70;;
7169;SDS011;3626;42.656;23.312;2023-02-15T00:36:59;43.77;;;22.80;;
7169;SDS011;3626;42.656;23.312;2023-02-15T00:37:05;44.17;;;23.10;;
7169;SDS011;3626;42.656;23.312;2023-02-15T00:37:11;45.95;;;23.55;;
7169;SDS011;3626;42.656;23.312;2023-02-15T00:37:18;46.00;;;23.50;;
7169;SDS011;3626;42.656;23.312;2023-02-15T00:37:24;48.45;;;23.75;;
7169;SDS011;3626;42.656;23.312;2023-02-15T00:37:30;53.15;;;23.95;;
7169;SDS011;3626;42.656;23.312;2023-02-15T00:37:36;54.40;;;23.80;;
7169;SDS011;3626;42.656;23.312;2023-02-15T00:37:42;55.90;;;23.90;;
7169;SDS011;3626;42.656;23.312;2023-02-15T00:37:48;56.90;;;24.38;;
7169;SDS011;3626;42.656;23.312;2023-02-15T00:37:54;57.77;;;24.67;;
7169;SDS011;3626;42.656;23.312;2023-02-15T00:38:01;58.83;;;25.10;;
7169;SDS011;3626;42.656;23.312;2023-02-15T00:38:07;59.17;;;24.90;;
7169;SDS011;3626;42.656;23.312;2023-02-15T00:38:13;58.50;;;24.63;;
7169;SDS011;3626;42.656;23.312;2023-02-15T00:38:19;58.00;;;24.35;;
7169;SDS011;3626;42.656;23.312;2023-02-15T00:38:25;55.03;;;24.20;;
7169;SDS011;3626;42.656;23.312;2023-02-15T00:38:32;52.22;;;24.32;;
7169;SDS011;3626;42.656;23.312;2023-02-15T00:38:39;50.97;;;24.50;;
7169;SDS011;3626;42.656;23.312;2023-02-15T00:38:45;50.10;;;24.33;;
7169;SDS011;3626;42.656;23.312;2023-02-15T00:38:54;49.20;;;23.75;;
7169;SDS011;3626;42.656;23.312;2023-02-15T00:39:00;47.80;;;23.35;;
7169;SDS011;3626;42.656;23.312;2023-02-15T00:39:06;46.63;;;23.27;;
7169;SDS011;3626;42.656;23.312;2023-02-15T00:39:12;46.80;;;23.35;;
7169;SDS011;3626;42.656;23.312;2023-02-15T00:39:18;47.40;;;23.60;;
7169;SDS011;3626;42.656;23.312;2023-02-15T00:39:25;47.45;;;23.40;;